Time;durP1;ratioP1;P1;durP2;ratioP2;P2;SDS_P1;SDS_P2;PMS_P1;PMS_P2;Temp;Humidity;BMP_temperature;BMP_pressure;BME280_temperature;BME280_humidity;BME280_pressure;Samples;Min_cycle;Max_cycle;Signal;HPM_P1;HPM_P2
2023/07/03 00:00:44;;;;;;;75.23;5.30;;;17.70;1.00;;;;;;5077319;28;20164;-79
2023/07/03 00:03:13;;;;;;;73.10;4.00;;;17.70;1.00;;;;;;5077365;28;20160;-78
2023/07/03 00:05:46;;;;;;;71.47;5.20;;;17.60;1.00;;;;;;5077112;28;20406;-78
2023/07/03 00:08:13;;;;;;;72.47;5.40;;;17.60;1.00;;;;;;5058990;28;20452;-78
2023/07/03 00:10:39;;;;;;;78.63;5.20;;;17.60;1.00;;;;;;5076491;28;20403;-78
2023/07/03 00:13:05;;;;;;;77.20;5.63;;;17.60;1.00;;;;;;5076883;28;20437;-79
2023/07/03 00:15:31;;;;;;;75.57;4.83;;;17.60;1.00;;;;;;5058692;28;20175;-78
2023/07/03 00:17:57;;;;;;;75.63;5.57;;;17.60;1.00;;;;;;5076833;28;20414;-78
2023/07/03 00:20:22;;;;;;;71.80;4.90;;;17.60;1.00;;;;;;5076431;28;20893;-78
2023/07/03 00:22:51;;;;;;;74.90;4.40;;;17.50;1.00;;;;;;5076439;28;20164;-79
2023/07/03 00:25:17;;;;;;;71.87;4.27;;;17.40;1.00;;;;;;5077182;28;20232;-78
2023/07/03 00:27:44;;;;;;;78.53;4.90;;;17.50;1.00;;;;;;5076576;28;20425;-79
2023/07/03 00:30:10;;;;;;;79.30;4.80;;;17.40;1.00;;;;;;5076444;28;20390;-78
2023/07/03 00:32:36;;;;;;;71.00;4.50;;;17.40;1.00;;;;;;5076443;28;20507;-79
2023/07/03 00:35:02;;;;;;;78.30;5.20;;;17.30;1.00;;;;;;5076900;28;20398;-79
2023/07/03 00:37:29;;;;;;;75.77;5.07;;;17.30;1.00;;;;;;5076290;28;20921;-79
2023/07/03 00:39:55;;;;;;;72.33;4.80;;;17.20;1.00;;;;;;5076187;28;20435;-79
2023/07/03 00:42:25;;;;;;;75.57;4.93;;;17.20;1.00;;;;;;5076091;28;20402;-78
2023/07/03 00:44:50;;;;;;;76.17;4.80;;;17.20;1.00;;;;;;5076714;28;20394;-77
2023/07/03 00:47:16;;;;;;;76.30;5.73;;;17.20;1.00;;;;;;5075581;28;20761;-78
2023/07/03 00:49:42;;;;;;;76.57;4.97;;;17.10;1.00;;;;;;5075857;28;20172;-78
2023/07/03 00:52:10;;;;;;;79.80;4.60;;;17.00;1.00;;;;;;5076142;28;20187;-78
2023/07/03 00:54:36;;;;;;;75.73;4.20;;;17.00;1.00;;;;;;5076027;28;20160;-78
2023/07/03 00:57:02;;;;;;;76.83;6.23;;;17.00;1.00;;;;;;5075970;28;20488;-79
2023/07/03 00:59:28;;;;;;;74.80;5.07;;;17.00;1.00;;;;;;5076112;28;20395;-78
2023/07/03 01:01:58;;;;;;;70.57;4.37;;;17.10;1.00;;;;;;5076261;28;20885;-78
2023/07/03 01:04:37;;;;;;;72.30;4.90;;;17.00;1.00;;;;;;5075572;28;20584;-78
2023/07/03 01:07:16;;;;;;;73.90;4.90;;;17.00;1.00;;;;;;5075691;28;20382;-79
2023/07/03 01:09:49;;;;;;;74.47;4.93;;;16.90;1.00;;;;;;5075744;28;20430;-79
2023/07/03 01:12:17;;;;;;;78.80;4.90;;;17.00;1.00;;;;;;5075419;28;20432;-79
2023/07/03 01:14:45;;;;;;;75.27;5.07;;;16.90;1.00;;;;;;5075615;28;20395;-78
2023/07/03 01:17:12;;;;;;;74.27;5.30;;;17.00;1.00;;;;;;5075416;28;20803;-79
2023/07/03 01:19:40;;;;;;;77.43;6.50;;;16.90;1.00;;;;;;5075666;28;20402;-78
2023/07/03 01:22:14;;;;;;;75.10;5.63;;;16.70;1.00;;;;;;5075303;28;20434;-78
2023/07/03 01:25:03;;;;;;;71.33;5.13;;;16.70;1.00;;;;;;5057667;28;20410;-78
2023/07/03 01:27:32;;;;;;;72.17;5.43;;;16.60;1.00;;;;;;5057326;28;20794;-78
2023/07/03 01:29:59;;;;;;;72.17;5.70;;;16.60;1.00;;;;;;5075170;28;20434;-78
2023/07/03 01:32:29;;;;;;;76.27;5.40;;;16.60;1.00;;;;;;5075697;28;20782;-78
2023/07/03 01:34:56;;;;;;;79.93;5.47;;;16.60;1.00;;;;;;5075359;28;20379;-78
2023/07/03 01:37:26;;;;;;;76.50;5.60;;;16.60;1.00;;;;;;5056765;28;20505;-78
2023/07/03 01:39:53;;;;;;;76.57;6.07;;;16.50;1.00;;;;;;5057216;28;20413;-78
2023/07/03 01:42:23;;;;;;;76.83;6.23;;;16.50;1.00;;;;;;5075354;28;20464;-78
2023/07/03 01:44:49;;;;;;;81.07;6.83;;;16.40;1.00;;;;;;5056535;28;20410;-78
2023/07/03 01:47:15;;;;;;;79.20;6.90;;;16.30;1.00;;;;;;5056487;28;20428;-79
2023/07/03 01:49:41;;;;;;;74.40;7.10;;;16.30;1.00;;;;;;5058277;28;20175;-78
2023/07/03 01:52:34;;;;;;;75.53;5.60;;;16.20;1.00;;;;;;5040302;28;20453;-78
2023/07/03 01:55:07;;;;;;;74.37;8.50;;;16.20;1.00;;;;;;5075135;28;20379;-78
2023/07/03 01:57:52;;;;;;;70.23;7.83;;;16.10;1.00;;;;;;5075067;28;20421;-78
2023/07/03 02:00:32;;;;;;;75.33;10.10;;;16.10;1.00;;;;;;5056796;28;20406;-78
2023/07/03 02:03:03;;;;;;;73.77;7.93;;;16.10;1.00;;;;;;5075490;28;20391;-79
2023/07/03 02:05:32;;;;;;;78.37;8.37;;;16.10;1.00;;;;;;5056705;28;20482;-78
2023/07/03 02:08:00;;;;;;;79.37;8.40;;;16.10;1.00;;;;;;5146949;22;21324;-78
2023/07/03 02:10:26;;;;;;;74.63;8.70;;;16.00;1.00;;;;;;5079166;28;20390;-79
2023/07/03 02:12:51;;;;;;;79.07;9.40;;;16.00;1.00;;;;;;5078973;28;20442;-80
2023/07/03 02:15:17;;;;;;;74.77;8.30;;;15.90;1.00;;;;;;5079394;28;20489;-80
2023/07/03 02:17:43;;;;;;;75.60;8.60;;;16.00;1.00;;;;;;5079094;28;20184;-77
2023/07/03 02:20:14;;;;;;;82.67;10.00;;;16.00;1.00;;;;;;5078630;28;20164;-79
2023/07/03 02:22:42;;;;;;;76.13;9.93;;;15.90;1.00;;;;;;5079129;28;20387;-79
2023/07/03 02:25:10;;;;;;;82.20;9.70;;;15.90;1.00;;;;;;5079364;28;20404;-79
2023/07/03 02:27:35;;;;;;;78.90;10.10;;;15.90;1.00;;;;;;5078999;28;20429;-80
2023/07/03 02:30:02;;;;;;;78.50;9.93;;;15.90;1.00;;;;;;5079079;28;20539;-79
2023/07/03 02:32:35;;;;;;;79.80;10.10;;;15.90;1.00;;;;;;5078406;28;20251;-79
2023/07/03 02:35:01;;;;;;;80.77;9.17;;;16.00;1.00;;;;;;5079425;28;20464;-79
2023/07/03 02:37:27;;;;;;;73.93;10.80;;;15.80;1.00;;;;;;5078726;28;20428;-80
2023/07/03 02:39:53;;;;;;;77.47;10.40;;;15.70;1.00;;;;;;5078547;28;20406;-77
2023/07/03 02:42:18;;;;;;;75.57;12.10;;;15.70;1.00;;;;;;5079794;28;20190;-79
2023/07/03 02:44:44;;;;;;;74.77;13.40;;;15.60;1.00;;;;;;5060594;28;20178;-79
2023/07/03 02:47:11;;;;;;;73.93;11.30;;;15.70;1.00;;;;;;5078625;28;20192;-79
2023/07/03 02:49:36;;;;;;;90.57;12.63;;;15.70;1.00;;;;;;5078461;28;20404;-79
2023/07/03 02:52:02;;;;;;;82.07;13.10;;;15.60;1.00;;;;;;5079544;28;20269;-80
2023/07/03 02:54:28;;;;;;;75.00;9.10;;;15.70;1.00;;;;;;5078699;28;20170;-79
2023/07/03 02:56:54;;;;;;;80.30;10.93;;;15.60;1.00;;;;;;5081489;28;20409;-80
2023/07/03 02:59:19;;;;;;;77.27;11.17;;;15.60;1.00;;;;;;5082054;28;20600;-79
2023/07/03 03:01:45;;;;;;;76.90;9.70;;;15.60;1.00;;;;;;5082854;28;20160;-80
2023/07/03 03:04:11;;;;;;;80.57;10.27;;;15.60;1.00;;;;;;5082383;28;20159;-79
2023/07/03 03:06:38;;;;;;;80.87;9.07;;;15.70;1.00;;;;;;5082192;28;20157;-79
2023/07/03 03:09:05;;;;;;;82.20;10.50;;;15.80;1.00;;;;;;5081608;28;20202;-80
2023/07/03 03:11:30;;;;;;;73.73;10.20;;;15.70;1.00;;;;;;5063879;28;20410;-80
2023/07/03 03:13:56;;;;;;;75.77;10.10;;;15.70;1.00;;;;;;5081895;28;20481;-79
2023/07/03 03:16:23;;;;;;;79.07;11.00;;;15.70;1.00;;;;;;5064333;28;20167;-80
2023/07/03 03:18:50;;;;;;;79.00;12.77;;;15.60;1.00;;;;;;5064507;28;20187;-78
2023/07/03 03:21:16;;;;;;;87.10;12.30;;;15.60;1.00;;;;;;5064483;28;20484;-79
2023/07/03 03:23:41;;;;;;;78.17;11.77;;;15.60;1.00;;;;;;5081802;28;20412;-79
2023/07/03 03:26:07;;;;;;;86.00;11.17;;;15.60;1.00;;;;;;5082215;28;20163;-79
2023/07/03 03:28:33;;;;;;;78.17;10.23;;;15.70;1.00;;;;;;5082067;28;20186;-79
2023/07/03 03:31:01;;;;;;;74.90;10.80;;;15.70;1.00;;;;;;5063967;28;20172;-79
2023/07/03 03:33:27;;;;;;;78.53;13.57;;;15.70;1.00;;;;;;5082024;28;20556;-78
2023/07/03 03:35:53;;;;;;;79.67;14.90;;;15.60;1.00;;;;;;5081810;28;20399;-79
2023/07/03 03:38:18;;;;;;;82.53;14.27;;;15.60;1.00;;;;;;5081368;28;20221;-80
2023/07/03 03:40:54;;;;;;;76.50;12.03;;;15.70;1.00;;;;;;5063547;28;20168;-80
2023/07/03 03:43:19;;;;;;;80.40;13.43;;;15.70;1.00;;;;;;5063466;28;20166;-79
2023/07/03 03:45:56;;;;;;;81.63;14.07;;;15.70;1.00;;;;;;5081850;28;20966;-79
2023/07/03 03:48:22;;;;;;;74.97;11.47;;;15.70;1.00;;;;;;5082005;28;20278;-79
2023/07/03 03:50:48;;;;;;;77.77;12.50;;;15.80;1.00;;;;;;5081676;28;20464;-80
2023/07/03 03:53:14;;;;;;;84.50;13.80;;;15.70;1.00;;;;;;5081717;28;20453;-80
2023/07/03 03:55:40;;;;;;;81.90;14.07;;;15.80;1.00;;;;;;5080859;28;20444;-77
2023/07/03 03:58:05;;;;;;;85.70;13.17;;;15.70;1.00;;;;;;5081491;28;20188;-79
2023/07/03 04:00:31;;;;;;;82.67;15.60;;;15.70;1.00;;;;;;5081579;28;20162;-80
2023/07/03 04:02:57;;;;;;;80.87;14.60;;;15.70;2.90;;;;;;5063008;28;20653;-79
2023/07/03 04:05:23;;;;;;;78.50;16.70;;;15.70;4.40;;;;;;5081290;28;20221;-79
2023/07/03 04:07:49;;;;;;;76.37;15.23;;;15.70;6.80;;;;;;5080345;28;20811;-79
2023/07/03 04:10:14;;;;;;;78.23;17.13;;;15.70;5.80;;;;;;5081691;28;20253;-80
2023/07/03 04:12:40;;;;;;;78.37;14.53;;;15.70;6.10;;;;;;5081886;28;20227;-80
2023/07/03 04:15:06;;;;;;;84.13;15.87;;;15.80;4.70;;;;;;5081964;28;20653;-80
2023/07/03 04:17:32;;;;;;;84.20;14.90;;;15.80;5.20;;;;;;5081344;28;20218;-80
2023/07/03 04:19:58;;;;;;;81.27;17.63;;;15.80;4.50;;;;;;5080993;28;20406;-80
2023/07/03 04:22:25;;;;;;;80.37;17.93;;;15.80;8.20;;;;;;5081086;28;20165;-78
2023/07/03 04:24:51;;;;;;;82.20;16.23;;;15.80;9.20;;;;;;5080781;28;20218;-79
2023/07/03 04:27:17;;;;;;;77.73;15.80;;;15.80;11.80;;;;;;5081210;28;20406;-79
2023/07/03 04:29:43;;;;;;;92.40;17.63;;;15.80;14.30;;;;;;5062509;28;20170;-80
2023/07/03 04:32:09;;;;;;;80.50;17.20;;;15.80;15.50;;;;;;5080401;28;20474;-79
2023/07/03 04:34:34;;;;;;;87.00;16.03;;;15.70;19.20;;;;;;5080284;28;20160;-79
2023/07/03 04:37:00;;;;;;;81.37;16.10;;;15.80;18.30;;;;;;5062300;28;20174;-78
2023/07/03 04:39:26;;;;;;;76.57;15.83;;;15.70;21.00;;;;;;5062593;28;20407;-79
2023/07/03 04:41:51;;;;;;;87.27;16.50;;;15.80;22.20;;;;;;5080365;28;20171;-78
2023/07/03 04:44:18;;;;;;;78.13;16.30;;;15.80;23.70;;;;;;5062336;28;20171;-78
2023/07/03 04:46:43;;;;;;;88.70;14.80;;;15.90;21.90;;;;;;5061445;28;20163;-79
2023/07/03 04:49:11;;;;;;;80.77;12.13;;;16.10;19.90;;;;;;5080123;28;20410;-80
2023/07/03 04:51:39;;;;;;;81.80;13.33;;;16.00;21.70;;;;;;5062636;28;20167;-80
2023/07/03 04:54:05;;;;;;;79.80;14.43;;;16.00;21.50;;;;;;5080180;28;20420;-80
2023/07/03 04:56:33;;;;;;;86.00;14.67;;;16.20;19.40;;;;;;5080469;28;20402;-79
2023/07/03 04:58:59;;;;;;;79.63;13.10;;;16.20;19.30;;;;;;5079411;28;20808;-80
2023/07/03 05:01:25;;;;;;;77.00;13.20;;;16.30;19.30;;;;;;5080583;28;20416;-80
2023/07/03 05:03:50;;;;;;;84.40;14.87;;;16.10;21.40;;;;;;5080377;28;20170;-79
2023/07/03 05:06:16;;;;;;;79.30;12.10;;;16.20;20.40;;;;;;5080222;28;20175;-78
2023/07/03 05:08:42;;;;;;;77.47;13.90;;;16.20;19.30;;;;;;5061357;28;20214;-79
2023/07/03 05:11:08;;;;;;;85.17;15.13;;;16.30;20.40;;;;;;5079997;28;20410;-79
2023/07/03 05:13:33;;;;;;;75.90;11.70;;;16.40;17.50;;;;;;5079547;28;20655;-79
2023/07/03 05:15:59;;;;;;;79.60;10.90;;;16.30;17.40;;;;;;5079574;28;20186;-80
2023/07/03 05:18:25;;;;;;;77.20;12.97;;;16.30;19.70;;;;;;5079218;28;20586;-79
2023/07/03 05:20:50;;;;;;;80.47;12.43;;;16.40;19.50;;;;;;5079644;28;20406;-79
2023/07/03 05:23:17;;;;;;;79.37;11.17;;;16.40;21.10;;;;;;5079339;28;20623;-80
2023/07/03 05:25:43;;;;;;;80.57;13.30;;;16.40;19.70;;;;;;5079596;28;20227;-80
2023/07/03 05:28:08;;;;;;;83.63;12.83;;;16.50;15.90;;;;;;5079722;28;20457;-79
2023/07/03 05:30:34;;;;;;;85.63;11.67;;;16.50;16.20;;;;;;5079782;28;20654;-79
2023/07/03 05:33:00;;;;;;;81.50;13.10;;;16.60;13.20;;;;;;5060418;28;20191;-79
2023/07/03 05:35:26;;;;;;;86.40;12.03;;;16.60;14.90;;;;;;5078699;28;20164;-79
2023/07/03 05:37:52;;;;;;;88.93;11.67;;;16.60;17.70;;;;;;5078797;28;20424;-79
2023/07/03 05:40:18;;;;;;;80.97;11.00;;;16.80;14.70;;;;;;5078683;28;20164;-79
2023/07/03 05:42:44;;;;;;;82.50;11.47;;;16.90;11.50;;;;;;5078303;28;20179;-79
2023/07/03 05:45:10;;;;;;;81.70;11.37;;;16.90;12.10;;;;;;5060797;28;20406;-79
2023/07/03 05:47:36;;;;;;;83.03;11.50;;;16.90;10.20;;;;;;5078402;28;20490;-79
2023/07/03 05:50:02;;;;;;;79.00;10.60;;;16.90;11.50;;;;;;5078516;28;20646;-79
2023/07/03 05:52:28;;;;;;;79.57;11.17;;;16.80;14.30;;;;;;5078581;28;20196;-79
2023/07/03 05:54:53;;;;;;;79.07;9.80;;;17.00;12.00;;;;;;5078857;28;20441;-79
2023/07/03 05:57:20;;;;;;;85.77;10.33;;;17.10;9.50;;;;;;5078861;28;20184;-79
2023/07/03 05:59:46;;;;;;;75.40;9.93;;;17.20;8.10;;;;;;5079264;28;20226;-79
2023/07/03 06:02:14;;;;;;;84.60;9.03;;;17.40;6.50;;;;;;5078520;28;20410;-79
2023/07/03 06:04:39;;;;;;;83.27;9.00;;;17.50;7.80;;;;;;5059866;28;20806;-79
2023/07/03 06:07:06;;;;;;;81.50;7.60;;;17.50;6.50;;;;;;5078406;28;20410;-79
2023/07/03 06:09:33;;;;;;;75.73;9.27;;;17.50;3.50;;;;;;5077901;28;20184;-78
2023/07/03 06:11:59;;;;;;;81.37;8.50;;;17.40;3.30;;;;;;5078112;28;20410;-79
2023/07/03 06:14:25;;;;;;;79.00;10.30;;;17.50;4.40;;;;;;5078107;28;20910;-79
2023/07/03 06:16:52;;;;;;;75.10;7.17;;;17.50;5.90;;;;;;5077173;28;20398;-79
2023/07/03 06:19:19;;;;;;;81.03;8.00;;;17.70;3.30;;;;;;5077603;28;20422;-79
2023/07/03 06:21:45;;;;;;;72.73;7.20;;;17.70;1.30;;;;;;5077637;28;20437;-79
2023/07/03 06:24:13;;;;;;;76.80;8.13;;;17.70;2.90;;;;;;5058965;28;20413;-79
2023/07/03 06:26:39;;;;;;;79.97;8.10;;;17.60;3.20;;;;;;5077463;28;20448;-79
2023/07/03 06:29:10;;;;;;;83.93;8.93;;;17.70;2.60;;;;;;5076951;28;20418;-79
2023/07/03 06:31:36;;;;;;;82.43;7.27;;;17.90;1.00;;;;;;5079135;28;20516;-79
2023/07/03 06:34:03;;;;;;;79.00;7.00;;;17.90;1.00;;;;;;5081400;28;20437;-79
2023/07/03 06:36:29;;;;;;;77.47;8.00;;;17.90;1.00;;;;;;5063690;28;20406;-79
2023/07/03 06:38:56;;;;;;;80.83;7.80;;;17.80;1.00;;;;;;5082516;28;20410;-79
2023/07/03 06:41:25;;;;;;;82.63;7.90;;;17.90;1.00;;;;;;5063751;28;20432;-79
2023/07/03 06:43:51;;;;;;;76.37;7.83;;;17.60;1.00;;;;;;5080997;28;20406;-79
2023/07/03 06:46:17;;;;;;;77.37;8.37;;;17.80;1.00;;;;;;5081427;28;20501;-79
2023/07/03 06:48:43;;;;;;;78.40;7.73;;;18.00;1.00;;;;;;5080535;28;20534;-78
2023/07/03 06:51:11;;;;;;;82.83;9.93;;;18.10;1.00;;;;;;5080296;28;20166;-79
2023/07/03 06:53:37;;;;;;;72.57;6.93;;;18.10;1.00;;;;;;5081310;28;20196;-79
2023/07/03 06:56:04;;;;;;;74.00;7.30;;;18.10;1.00;;;;;;5081421;28;20399;-79
2023/07/03 06:58:31;;;;;;;73.77;7.23;;;18.10;1.00;;;;;;5081266;28;20751;-79
2023/07/03 07:00:57;;;;;;;79.90;6.87;;;18.20;1.00;;;;;;5081084;28;20401;-79
2023/07/03 07:03:23;;;;;;;76.80;7.93;;;18.40;1.00;;;;;;5081514;28;20398;-79
2023/07/03 07:05:49;;;;;;;80.67;7.70;;;18.30;1.00;;;;;;5081167;28;20187;-79
2023/07/03 07:08:18;;;;;;;73.57;7.83;;;18.50;1.00;;;;;;5080591;28;20433;-79
2023/07/03 07:10:44;;;;;;;73.93;8.50;;;18.80;1.00;;;;;;5081439;28;20386;-79
2023/07/03 07:13:11;;;;;;;81.60;7.03;;;19.00;1.00;;;;;;5081338;28;20438;-79
2023/07/03 07:15:41;;;;;;;77.77;6.93;;;19.10;1.00;;;;;;5063124;28;20441;-77
2023/07/03 07:18:08;;;;;;;82.13;6.50;;;19.40;1.00;;;;;;5080600;28;20447;-79
2023/07/03 07:20:39;;;;;;;89.07;7.20;;;19.60;1.00;;;;;;5063167;28;20411;-79
2023/07/03 07:23:05;;;;;;;76.40;5.97;;;19.60;1.00;;;;;;5080553;28;20404;-79
2023/07/03 07:25:31;;;;;;;75.00;5.60;;;19.60;1.00;;;;;;5080954;28;20399;-78
2023/07/03 07:27:57;;;;;;;74.03;6.00;;;19.70;1.00;;;;;;5080266;28;20418;-79
2023/07/03 07:30:23;;;;;;;75.43;5.17;;;19.60;1.00;;;;;;5062579;28;20174;-79
2023/07/03 07:32:52;;;;;;;81.07;6.47;;;19.60;1.00;;;;;;5080594;28;20273;-79
2023/07/03 07:35:18;;;;;;;77.77;5.80;;;19.50;1.00;;;;;;5080302;28;20399;-79
2023/07/03 07:37:44;;;;;;;74.73;6.00;;;19.30;1.00;;;;;;5080662;28;20421;-79
2023/07/03 07:40:10;;;;;;;73.00;6.23;;;19.30;1.00;;;;;;5080704;28;20493;-79
2023/07/03 07:42:37;;;;;;;74.50;5.50;;;19.40;1.00;;;;;;5078649;28;20176;-79
2023/07/03 07:45:03;;;;;;;76.47;5.60;;;19.50;1.00;;;;;;5080279;28;20452;-79
2023/07/03 07:47:29;;;;;;;72.97;4.70;;;19.50;1.00;;;;;;5080054;28;20442;-79
2023/07/03 07:49:55;;;;;;;78.13;6.00;;;19.50;1.00;;;;;;5080093;28;20489;-79
2023/07/03 07:52:23;;;;;;;79.00;6.40;;;19.60;1.00;;;;;;5079865;28;20489;-77
2023/07/03 07:54:57;;;;;;;73.30;5.97;;;19.60;1.00;;;;;;5045532;28;20168;-79
2023/07/03 07:57:23;;;;;;;75.20;5.27;;;19.50;1.00;;;;;;5079565;28;20493;-79
2023/07/03 07:59:49;;;;;;;74.10;5.67;;;19.60;1.00;;;;;;5080527;28;20398;-79
2023/07/03 08:02:14;;;;;;;77.17;5.60;;;19.80;1.00;;;;;;5080377;28;20813;-79
2023/07/03 08:04:41;;;;;;;78.40;5.20;;;19.90;1.00;;;;;;5080014;28;20168;-79
2023/07/03 08:07:07;;;;;;;72.80;5.17;;;20.10;1.00;;;;;;5079820;28;20160;-79
2023/07/03 08:09:33;;;;;;;72.47;4.80;;;20.10;1.00;;;;;;5168207;22;20993;-82
2023/07/03 08:12:04;;;;;;;72.70;4.53;;;20.30;1.00;;;;;;5079607;28;20724;-82
2023/07/03 08:14:30;;;;;;;73.00;4.60;;;20.40;1.00;;;;;;5079791;28;20884;-83
2023/07/03 08:16:58;;;;;;;76.33;4.87;;;20.40;1.00;;;;;;5079436;28;20407;-82
2023/07/03 08:19:34;;;;;;;;;;;;;;;;;;;;;
2023/07/03 08:22:03;;;;;;;74.40;4.33;;;20.50;1.00;;;;;;5055110;28;20855;-82
2023/07/03 08:24:34;;;;;;;74.00;4.27;;;20.50;1.00;;;;;;5040982;28;20417;-82
2023/07/03 08:27:02;;;;;;;72.17;3.90;;;20.50;1.00;;;;;;5058514;28;20374;-82
2023/07/03 08:29:28;;;;;;;75.57;4.60;;;20.50;1.00;;;;;;5041559;28;20435;-81
2023/07/03 08:31:53;;;;;;;74.37;5.23;;;20.40;1.00;;;;;;5061663;28;20405;-81
2023/07/03 08:34:19;;;;;;;72.10;5.13;;;20.40;1.00;;;;;;5064773;28;20666;-81
2023/07/03 08:36:45;;;;;;;72.80;4.60;;;20.30;1.00;;;;;;5064114;28;20220;-81
2023/07/03 08:39:10;;;;;;;77.47;5.50;;;20.30;1.00;;;;;;5046939;28;20180;-81
2023/07/03 08:41:51;;;;;;;74.53;4.73;;;20.30;1.00;;;;;;5047991;28;20168;-81
2023/07/03 08:44:17;;;;;;;73.40;3.90;;;20.50;1.00;;;;;;5049427;28;20215;-81
2023/07/03 08:46:43;;;;;;;73.67;4.60;;;20.40;1.00;;;;;;5061822;28;20397;-82
2023/07/03 08:49:13;;;;;;;75.43;4.83;;;20.60;1.00;;;;;;5060708;28;20244;-82
2023/07/03 08:51:39;;;;;;;73.00;4.40;;;20.70;1.00;;;;;;5042486;28;20821;-82
2023/07/03 08:54:18;;;;;;;74.00;5.10;;;20.70;1.00;;;;;;5059470;28;20446;-83
2023/07/03 08:56:44;;;;;;;72.43;4.60;;;20.80;1.00;;;;;;5059010;28;20411;-82
2023/07/03 08:59:09;;;;;;;77.60;4.90;;;20.90;1.00;;;;;;5059184;28;20429;-82
2023/07/03 09:01:51;;;;;;;69.70;4.53;;;20.90;1.00;;;;;;5059830;28;20763;-82
2023/07/03 09:04:19;;;;;;;71.67;4.43;;;21.00;1.00;;;;;;5060089;28;20184;-82
2023/07/03 09:06:50;;;;;;;70.70;4.23;;;21.30;1.00;;;;;;5041366;28;20432;-82
2023/07/03 09:09:25;;;;;;;74.20;5.67;;;21.50;1.00;;;;;;5058813;28;20461;-82
2023/07/03 09:12:05;;;;;;;75.57;5.33;;;21.60;1.00;;;;;;5058361;28;20918;-82
2023/07/03 09:14:37;;;;;;;70.97;4.67;;;21.70;1.00;;;;;;5058939;28;20459;-82
2023/07/03 09:17:08;;;;;;;70.60;3.53;;;21.70;1.00;;;;;;5058698;28;20395;-82
2023/07/03 09:19:37;;;;;;;72.17;5.37;;;21.70;1.00;;;;;;5058778;28;20399;-82
2023/07/03 09:22:06;;;;;;;72.47;5.03;;;22.00;1.00;;;;;;5040888;28;20461;-82
2023/07/03 09:24:38;;;;;;;73.87;4.80;;;22.30;1.00;;;;;;5058529;28;20407;-82
2023/07/03 09:27:21;;;;;;;76.50;5.20;;;22.40;1.00;;;;;;5057860;28;20403;-82
2023/07/03 09:29:46;;;;;;;79.80;6.70;;;22.20;1.00;;;;;;5059042;28;20427;-82
2023/07/03 09:32:24;;;;;;;74.53;5.37;;;22.00;1.00;;;;;;5058168;28;20454;-82
2023/07/03 09:35:15;;;;;;;80.50;7.53;;;21.80;1.00;;;;;;5058704;28;20507;-82
2023/07/03 09:37:44;;;;;;;73.80;4.90;;;21.70;1.00;;;;;;5058695;28;20436;-83
2023/07/03 09:40:48;;;;;;;72.80;4.70;;;21.60;1.00;;;;;;5058256;28;20396;-82
2023/07/03 09:43:15;;;;;;;74.37;5.90;;;21.50;1.00;;;;;;4977873;28;20422;-82
2023/07/03 09:45:41;;;;;;;77.70;5.37;;;21.40;1.00;;;;;;5043772;28;20418;-82
2023/07/03 09:48:31;;;;;;;75.27;5.80;;;21.50;1.00;;;;;;5040354;28;21026;-82
2023/07/03 09:50:57;;;;;;;71.87;5.13;;;21.40;1.00;;;;;;5057341;28;20756;-82
2023/07/03 09:53:26;;;;;;;75.20;5.80;;;21.30;1.00;;;;;;5058334;28;20454;-82
2023/07/03 09:55:57;;;;;;;75.23;5.43;;;21.30;1.00;;;;;;5039853;28;20165;-82
2023/07/03 09:58:25;;;;;;;71.60;5.27;;;21.20;1.00;;;;;;5040132;28;20498;-82
2023/07/03 10:00:58;;;;;;;72.77;5.60;;;21.10;1.00;;;;;;5057913;28;20403;-83
2023/07/03 10:03:26;;;;;;;75.87;4.93;;;21.00;1.00;;;;;;5059202;28;20379;-81
2023/07/03 10:05:54;;;;;;;75.93;4.97;;;21.00;1.00;;;;;;5040072;28;20415;-83
2023/07/03 10:08:26;;;;;;;77.27;5.70;;;21.00;1.00;;;;;;5057598;28;20424;-82
2023/07/03 10:10:55;;;;;;;74.87;5.23;;;20.90;1.00;;;;;;5057221;28;20420;-82
2023/07/03 10:13:29;;;;;;;69.77;4.70;;;20.90;1.00;;;;;;5057703;28;20453;-82
2023/07/03 10:15:55;;;;;;;76.30;5.87;;;21.00;1.00;;;;;;5040191;28;20487;-82
2023/07/03 10:18:31;;;;;;;72.27;5.20;;;21.10;1.00;;;;;;5039289;28;20524;-82
2023/07/03 10:21:01;;;;;;;72.60;5.33;;;21.20;1.00;;;;;;5057423;28;20408;-82
2023/07/03 10:23:31;;;;;;;75.83;6.40;;;21.60;1.00;;;;;;5039270;28;20479;-82
2023/07/03 10:28:31;;;;;;;76.00;6.17;;;22.50;1.00;;;;;;5482029;22;20934;-81
2023/07/03 10:31:00;;;;;;;75.73;5.70;;;22.70;1.00;;;;;;5075536;28;20786;-82
2023/07/03 10:33:48;;;;;;;72.17;6.40;;;22.50;1.00;;;;;;5076791;28;20429;-81
2023/07/03 10:36:21;;;;;;;71.17;5.90;;;22.30;1.00;;;;;;5077584;28;20981;-80
2023/07/03 10:39:16;;;;;;;70.67;5.67;;;22.00;1.00;;;;;;5077351;28;20414;-81
2023/07/03 10:41:49;;;;;;;73.17;5.67;;;21.60;1.00;;;;;;5077207;28;20398;-81
2023/07/03 10:44:32;;;;;;;77.10;6.57;;;21.60;1.00;;;;;;5145644;22;20489;-77
2023/07/03 10:46:59;;;;;;;74.27;5.90;;;21.70;1.00;;;;;;5072987;28;20432;-76
2023/07/03 10:49:32;;;;;;;71.90;6.07;;;22.00;1.00;;;;;;5052605;28;20390;-76
2023/07/03 10:52:06;;;;;;;73.10;5.77;;;22.70;1.00;;;;;;5052590;28;20364;-76
2023/07/03 10:54:54;;;;;;;74.17;5.93;;;23.40;1.00;;;;;;5052885;28;20387;-77
2023/07/03 10:57:37;;;;;;;76.03;6.13;;;23.80;1.00;;;;;;5052759;28;20930;-76
2023/07/03 11:00:12;;;;;;;72.90;5.70;;;24.00;1.00;;;;;;5052906;28;20883;-76
2023/07/03 11:02:44;;;;;;;69.87;6.13;;;23.80;1.00;;;;;;5035658;28;20387;-77
2023/07/03 11:05:25;;;;;;;76.80;7.53;;;23.50;1.00;;;;;;5052481;28;20833;-77
2023/07/03 11:08:20;;;;;;;73.67;7.60;;;23.20;1.00;;;;;;5052715;28;20779;-77
2023/07/03 11:11:18;;;;;;;74.00;6.73;;;22.70;1.00;;;;;;5052455;28;20479;-76
2023/07/03 11:14:05;;;;;;;73.67;6.57;;;22.80;1.00;;;;;;5052607;28;20426;-76
2023/07/03 11:17:05;;;;;;;75.13;7.60;;;22.80;1.00;;;;;;5052391;28;20384;-76
2023/07/03 11:19:49;;;;;;;79.93;8.10;;;22.80;1.00;;;;;;5055940;28;20453;-75
2023/07/03 11:22:24;;;;;;;72.67;6.40;;;22.80;1.00;;;;;;5056237;28;20386;-76
2023/07/03 11:25:05;;;;;;;72.40;6.93;;;22.80;1.00;;;;;;5056213;28;20383;-76
2023/07/03 11:27:49;;;;;;;75.43;6.80;;;22.60;1.00;;;;;;5056104;28;20461;-76
2023/07/03 11:30:16;;;;;;;75.87;6.17;;;22.30;1.00;;;;;;5055793;28;20890;-76
2023/07/03 11:32:43;;;;;;;73.13;6.97;;;22.20;1.00;;;;;;5038608;28;20537;-76
2023/07/03 11:35:13;;;;;;;73.63;6.70;;;22.10;1.00;;;;;;5055683;28;20762;-75
2023/07/03 11:37:38;;;;;;;74.13;6.10;;;21.80;1.00;;;;;;5055849;28;20411;-76
2023/07/03 11:40:58;;;;;;;80.37;5.93;;;21.90;1.00;;;;;;5055653;28;20409;-76
2023/07/03 11:43:32;;;;;;;70.80;6.20;;;22.10;1.00;;;;;;5055342;28;20193;-76
2023/07/03 11:45:57;;;;;;;78.43;6.47;;;22.40;1.00;;;;;;5055821;28;20720;-77
2023/07/03 11:48:32;;;;;;;76.57;6.20;;;22.70;1.00;;;;;;5055522;28;20465;-76
2023/07/03 11:51:03;;;;;;;72.93;6.60;;;22.80;1.00;;;;;;5055711;28;20578;-76
2023/07/03 11:53:37;;;;;;;71.90;6.50;;;22.80;1.00;;;;;;5055319;28;20431;-76
2023/07/03 11:56:05;;;;;;;71.30;7.50;;;22.80;1.00;;;;;;5055302;28;20380;-76
2023/07/03 11:58:33;;;;;;;70.90;7.80;;;22.90;1.00;;;;;;5055220;28;20419;-76
2023/07/03 12:01:20;;;;;;;70.60;7.57;;;23.20;1.00;;;;;;5055442;28;20418;-76
2023/07/03 12:03:59;;;;;;;73.90;7.53;;;23.20;1.00;;;;;;5055245;28;20485;-76
2023/07/03 12:06:46;;;;;;;78.37;8.07;;;23.50;1.00;;;;;;5055778;28;20755;-76
2023/07/03 12:09:22;;;;;;;73.03;6.57;;;23.70;1.00;;;;;;5055050;28;20852;-76
2023/07/03 12:12:00;;;;;;;72.13;6.80;;;24.20;1.00;;;;;;5055105;28;20399;-76
2023/07/03 12:14:52;;;;;;;73.70;8.37;;;24.60;1.00;;;;;;5055015;28;20407;-76
2023/07/03 12:17:25;;;;;;;76.73;9.93;;;24.80;1.00;;;;;;5054921;28;20382;-76
2023/07/03 12:19:57;;;;;;;74.37;9.70;;;24.40;1.00;;;;;;5054993;28;20376;-76
2023/07/03 12:22:26;;;;;;;78.40;9.90;;;24.00;1.00;;;;;;5055119;28;20498;-76
2023/07/03 12:25:09;;;;;;;71.77;9.07;;;23.70;1.00;;;;;;5055377;28;20953;-76
2023/07/03 12:27:36;;;;;;;80.13;10.97;;;23.30;1.00;;;;;;5036818;28;20427;-76
2023/07/03 12:30:03;;;;;;;76.70;10.37;;;23.20;1.00;;;;;;5054317;28;20396;-76
2023/07/03 12:32:31;;;;;;;78.17;10.03;;;22.90;1.00;;;;;;5054577;28;20438;-77
2023/07/03 12:35:19;;;;;;;77.43;9.90;;;22.70;1.00;;;;;;5054891;28;20411;-76
2023/07/03 12:37:52;;;;;;;76.67;9.60;;;22.50;1.00;;;;;;5054828;28;20501;-76
2023/07/03 12:40:19;;;;;;;73.43;8.60;;;22.70;1.00;;;;;;5054773;28;20386;-76
2023/07/03 12:42:50;;;;;;;75.90;10.30;;;22.80;1.00;;;;;;5054287;28;20465;-77
2023/07/03 12:45:15;;;;;;;74.10;8.43;;;22.90;1.00;;;;;;5054379;28;20414;-77
2023/07/03 12:47:41;;;;;;;79.13;9.37;;;23.20;1.00;;;;;;5036418;28;20427;-77
2023/07/03 12:50:13;;;;;;;76.17;8.67;;;23.60;1.00;;;;;;5054341;28;20164;-76
2023/07/03 12:52:39;;;;;;;77.80;11.17;;;24.10;1.00;;;;;;5054275;28;20431;-76
2023/07/03 12:55:06;;;;;;;75.80;9.97;;;24.50;1.00;;;;;;5054224;28;20414;-76
2023/07/03 12:57:34;;;;;;;74.83;9.67;;;24.80;1.00;;;;;;5054148;28;20256;-75